Time;durP1;ratioP1;P1;durP2;ratioP2;P2;SDS_P1;SDS_P2;PMS_P1;PMS_P2;Temp;Humidity;BMP_temperature;BMP_pressure;BME280_temperature;BME280_humidity;BME280_pressure;Samples;Min_cycle;Max_cycle;Signal;HPM_P1;HPM_P2
2022/07/03 00:01:01;;;;;;;4.88;0.82;;;17.00;99.90;;;;;;6237867;23;20027;-64
2022/07/03 00:03:26;;;;;;;3.53;0.93;;;16.90;99.90;;;;;;6238680;23;20095;-64
2022/07/03 00:05:52;;;;;;;1.27;0.77;;;16.90;99.90;;;;;;6239192;23;20019;-64
2022/07/03 00:08:18;;;;;;;4.55;1.15;;;16.90;99.90;;;;;;6238580;23;20026;-64
2022/07/03 00:10:44;;;;;;;2.47;0.85;;;16.90;99.90;;;;;;6238737;23;20016;-64
2022/07/03 00:13:09;;;;;;;2.45;0.90;;;16.90;99.90;;;;;;6210421;23;20024;-65
2022/07/03 00:15:36;;;;;;;2.20;1.17;;;16.90;99.90;;;;;;6212648;23;20784;-64
2022/07/03 00:18:01;;;;;;;1.20;0.88;;;16.90;99.90;;;;;;6238343;23;20008;-64
2022/07/03 00:20:32;;;;;;;5.50;1.73;;;16.90;99.90;;;;;;6238603;23;20642;-64
2022/07/03 00:23:04;;;;;;;1.42;1.05;;;16.90;99.90;;;;;;6239460;23;20023;-64
2022/07/03 00:25:31;;;;;;;1.45;1.08;;;16.90;99.90;;;;;;6237579;23;20016;-64
2022/07/03 00:27:57;;;;;;;2.65;1.25;;;16.90;99.90;;;;;;6239459;23;20445;-64
2022/07/03 00:30:24;;;;;;;1.67;1.00;;;16.90;99.90;;;;;;6238109;23;20090;-64
2022/07/03 00:32:51;;;;;;;3.53;1.33;;;16.80;99.90;;;;;;6211736;23;20020;-65
2022/07/03 00:35:18;;;;;;;1.63;0.95;;;16.80;99.90;;;;;;6238105;23;20425;-65
2022/07/03 00:37:44;;;;;;;4.10;1.15;;;16.70;99.90;;;;;;6238194;23;20346;-64
2022/07/03 00:40:10;;;;;;;4.07;1.40;;;16.70;99.90;;;;;;6239573;23;20083;-64
2022/07/03 00:42:41;;;;;;;2.30;1.10;;;16.60;99.90;;;;;;6237708;23;20012;-64
2022/07/03 00:45:08;;;;;;;9.65;1.40;;;16.60;99.90;;;;;;6239003;23;20016;-64
2022/07/03 00:47:36;;;;;;;2.33;1.00;;;16.60;99.90;;;;;;6237079;23;20024;-64
2022/07/03 00:50:07;;;;;;;7.43;0.95;;;16.50;99.90;;;;;;6239402;23;20012;-64
2022/07/03 00:52:35;;;;;;;3.25;1.08;;;16.40;99.90;;;;;;6237833;23;20024;-64
2022/07/03 00:55:06;;;;;;;6.95;1.58;;;16.40;99.90;;;;;;6238667;23;20016;-64
2022/07/03 00:57:32;;;;;;;3.40;1.10;;;16.30;99.90;;;;;;6213180;23;20012;-64
2022/07/03 00:59:58;;;;;;;2.40;1.13;;;16.30;99.90;;;;;;6238075;23;20023;-64
2022/07/03 01:02:40;;;;;;;2.00;1.40;;;16.30;99.90;;;;;;6239117;23;20051;-64
2022/07/03 01:05:18;;;;;;;5.65;1.30;;;16.30;99.90;;;;;;6238237;23;20062;-64
2022/07/03 01:08:25;;;;;;;1.60;0.90;;;16.30;99.90;;;;;;6211681;23;20024;-64
2022/07/03 01:11:06;;;;;;;2.45;1.20;;;16.30;99.90;;;;;;6216761;23;20027;-64
2022/07/03 01:13:53;;;;;;;1.48;1.00;;;16.30;99.90;;;;;;6237153;23;20852;-64
2022/07/03 01:16:31;;;;;;;0.90;0.90;;;16.30;99.90;;;;;;6212145;23;20031;-64
2022/07/03 01:19:11;;;;;;;1.70;1.08;;;16.30;99.90;;;;;;6238291;23;20024;-64
2022/07/03 01:22:21;;;;;;;2.47;0.95;;;16.30;99.90;;;;;;6237444;23;20444;-64
2022/07/03 01:25:11;;;;;;;2.67;0.85;;;16.20;99.90;;;;;;6238790;23;20016;-64
2022/07/03 01:27:59;;;;;;;1.20;0.70;;;16.10;99.90;;;;;;6211090;23;20492;-64
2022/07/03 01:30:31;;;;;;;3.95;1.13;;;16.00;99.90;;;;;;6210384;23;20020;-64
2022/07/03 01:33:03;;;;;;;2.17;1.00;;;15.90;99.90;;;;;;6238022;23;20034;-64
2022/07/03 01:35:34;;;;;;;3.55;1.30;;;15.90;99.90;;;;;;6237200;23;20020;-65
2022/07/03 01:38:10;;;;;;;3.42;1.27;;;15.80;99.90;;;;;;6238756;23;20008;-64
2022/07/03 01:40:37;;;;;;;2.55;1.25;;;15.80;99.90;;;;;;6238443;23;20343;-64
2022/07/03 01:43:08;;;;;;;5.30;1.35;;;15.80;99.90;;;;;;6210254;23;20435;-64
2022/07/03 01:45:38;;;;;;;1.30;0.95;;;15.70;99.90;;;;;;6237937;23;20016;-64
2022/07/03 01:48:06;;;;;;;2.20;1.33;;;15.70;99.90;;;;;;6209800;23;20016;-64
2022/07/03 01:50:32;;;;;;;2.80;1.00;;;15.70;99.90;;;;;;6239345;23;20427;-64
2022/07/03 01:53:01;;;;;;;5.82;1.08;;;15.70;99.90;;;;;;6236697;23;20060;-64
2022/07/03 01:55:31;;;;;;;2.78;1.45;;;15.70;99.90;;;;;;6238772;23;20099;-64
2022/07/03 01:57:57;;;;;;;2.13;1.02;;;15.60;99.90;;;;;;6237873;23;20016;-64
2022/07/03 02:00:23;;;;;;;3.63;1.20;;;15.50;99.90;;;;;;6237194;23;20046;-64
2022/07/03 02:03:02;;;;;;;1.73;1.10;;;15.40;99.90;;;;;;6237502;23;20099;-64
2022/07/03 02:05:43;;;;;;;3.55;0.95;;;15.40;99.90;;;;;;6237332;23;20103;-64
2022/07/03 02:08:54;;;;;;;4.40;1.00;;;15.30;99.90;;;;;;6238812;23;20027;-64
2022/07/03 02:11:22;;;;;;;4.53;1.00;;;15.30;99.90;;;;;;6235226;23;20019;-64
2022/07/03 02:13:52;;;;;;;2.40;1.27;;;15.20;99.90;;;;;;6209301;23;20059;-64
2022/07/03 02:16:22;;;;;;;5.00;1.50;;;15.20;99.90;;;;;;6238460;23;20066;-64
2022/07/03 02:19:03;;;;;;;6.00;1.95;;;15.20;99.90;;;;;;6236993;23;20494;-64
2022/07/03 02:21:30;;;;;;;3.95;1.42;;;15.20;99.90;;;;;;6211199;23;20443;-64
2022/07/03 02:24:12;;;;;;;3.47;1.35;;;15.10;99.90;;;;;;6237718;23;20065;-64
2022/07/03 02:26:42;;;;;;;3.00;1.30;;;15.10;99.90;;;;;;6209822;23;20020;-64
2022/07/03 02:29:14;;;;;;;1.95;1.38;;;15.00;99.90;;;;;;6211620;23;20466;-64
2022/07/03 02:31:54;;;;;;;2.88;1.40;;;15.00;99.90;;;;;;6236697;23;20016;-64
2022/07/03 02:34:25;;;;;;;3.63;1.35;;;14.90;99.90;;;;;;6210983;23;20024;-64
2022/07/03 02:36:54;;;;;;;3.28;1.77;;;14.90;99.90;;;;;;6240624;23;20380;-64
2022/07/03 02:39:50;;;;;;;3.85;1.50;;;14.90;99.90;;;;;;6239416;23;20016;-64
2022/07/03 02:42:26;;;;;;;1.45;1.35;;;14.90;99.90;;;;;;6240516;23;20016;-64
2022/07/03 02:44:55;;;;;;;11.77;1.65;;;14.80;99.90;;;;;;6238068;23;20020;-64
2022/07/03 02:47:27;;;;;;;3.33;1.08;;;14.80;99.90;;;;;;6240092;23;20528;-64
2022/07/03 02:50:08;;;;;;;1.70;1.60;;;14.80;99.90;;;;;;6239849;23;20408;-64
2022/07/03 02:52:44;;;;;;;1.83;1.27;;;14.80;99.90;;;;;;6239338;23;20047;-64
2022/07/03 02:55:15;;;;;;;1.50;1.40;;;14.70;99.90;;;;;;6240389;23;20051;-64
2022/07/03 02:57:43;;;;;;;2.53;1.40;;;14.70;99.90;;;;;;6211920;23;20020;-64
2022/07/03 03:00:11;;;;;;;2.25;1.40;;;14.60;99.90;;;;;;6239732;23;20027;-64
2022/07/03 03:02:49;;;;;;;3.80;1.97;;;14.60;99.90;;;;;;6239946;23;20017;-64
2022/07/03 03:05:29;;;;;;;6.38;1.80;;;14.60;99.90;;;;;;6238943;23;20016;-64
2022/07/03 03:08:27;;;;;;;3.45;1.88;;;14.60;99.90;;;;;;6240164;23;20095;-64
2022/07/03 03:10:59;;;;;;;4.40;1.95;;;14.60;99.90;;;;;;6238784;23;20042;-64
2022/07/03 03:13:30;;;;;;;2.10;1.90;;;14.60;99.90;;;;;;6239909;23;20012;-64
2022/07/03 03:16:05;;;;;;;2.25;1.70;;;14.60;99.90;;;;;;6239098;23;20022;-64
2022/07/03 03:18:35;;;;;;;1.83;1.73;;;14.50;99.90;;;;;;6238913;23;20054;-64
2022/07/03 03:21:03;;;;;;;4.20;1.75;;;14.50;99.90;;;;;;6239820;23;20451;-64
2022/07/03 03:23:45;;;;;;;2.38;2.17;;;14.50;99.90;;;;;;6238845;23;20095;-64
2022/07/03 03:26:24;;;;;;;2.80;1.95;;;14.50;99.90;;;;;;6212873;23;20023;-64
2022/07/03 03:28:51;;;;;;;3.97;2.53;;;14.50;99.90;;;;;;6239466;23;20040;-64
2022/07/03 03:31:19;;;;;;;7.50;2.30;;;14.50;99.90;;;;;;6238460;23;20313;-64
2022/07/03 03:33:47;;;;;;;4.22;2.35;;;14.50;99.90;;;;;;6238201;23;20328;-64
2022/07/03 03:36:15;;;;;;;10.23;2.67;;;14.50;99.90;;;;;;6238579;23;20023;-64
2022/07/03 03:38:41;;;;;;;7.13;3.10;;;14.60;99.90;;;;;;6239630;23;20036;-64
2022/07/03 03:41:08;;;;;;;3.75;3.17;;;14.60;99.90;;;;;;6238170;22;20425;-64
2022/07/03 03:43:35;;;;;;;3.58;3.03;;;14.70;99.90;;;;;;6237822;23;20016;-64
2022/07/03 03:46:01;;;;;;;4.10;2.75;;;14.70;99.90;;;;;;6236596;23;20025;-64
2022/07/03 03:48:28;;;;;;;2.13;2.03;;;14.80;99.90;;;;;;6238824;23;20020;-64
2022/07/03 03:50:58;;;;;;;8.15;2.75;;;14.80;99.90;;;;;;6239256;23;20396;-64
2022/07/03 03:53:28;;;;;;;2.72;2.50;;;14.80;99.90;;;;;;6211386;23;20027;-64
2022/07/03 03:56:12;;;;;;;6.65;2.60;;;14.90;99.90;;;;;;6239456;23;20078;-64
2022/07/03 03:58:39;;;;;;;2.88;2.63;;;14.90;99.90;;;;;;6212141;23;20031;-64
2022/07/03 04:01:07;;;;;;;4.55;2.72;;;14.90;99.90;;;;;;6211293;23;20461;-64
2022/07/03 04:03:33;;;;;;;5.47;2.30;;;14.90;99.90;;;;;;6212599;23;20019;-64
2022/07/03 04:05:59;;;;;;;2.78;1.85;;;15.00;99.90;;;;;;6237637;23;20078;-64
2022/07/03 04:08:26;;;;;;;5.55;2.63;;;14.90;99.90;;;;;;6239666;23;20020;-64
2022/07/03 04:10:52;;;;;;;4.63;2.75;;;14.70;99.90;;;;;;6237618;23;20066;-65
2022/07/03 04:13:20;;;;;;;5.60;3.60;;;14.80;99.90;;;;;;6239642;23;20219;-64
2022/07/03 04:15:51;;;;;;;8.00;3.47;;;14.90;99.90;;;;;;6237998;23;20513;-64
2022/07/03 04:18:17;;;;;;;3.45;3.13;;;15.00;99.90;;;;;;6239370;23;20048;-64
2022/07/03 04:20:43;;;;;;;3.92;3.17;;;15.00;99.90;;;;;;6239469;23;20039;-64
2022/07/03 04:23:09;;;;;;;7.25;3.67;;;15.10;99.90;;;;;;6237674;23;20009;-65
2022/07/03 04:25:35;;;;;;;4.40;3.42;;;15.20;99.90;;;;;;6239680;23;20143;-64
2022/07/03 04:28:01;;;;;;;4.80;2.95;;;15.20;99.90;;;;;;6237783;23;20016;-64
2022/07/03 04:30:27;;;;;;;5.35;3.50;;;15.20;99.90;;;;;;6212528;23;20024;-65
2022/07/03 04:32:52;;;;;;;3.08;2.88;;;15.20;99.90;;;;;;6210481;23;20386;-64
2022/07/03 04:35:18;;;;;;;5.60;3.20;;;15.30;99.90;;;;;;6239382;23;20024;-64
2022/07/03 04:37:44;;;;;;;4.50;3.35;;;15.30;99.90;;;;;;6211962;23;20016;-64
2022/07/03 04:40:11;;;;;;;4.28;3.20;;;15.30;99.90;;;;;;6237858;23;20347;-64
2022/07/03 04:42:37;;;;;;;4.53;2.80;;;15.30;99.90;;;;;;6212162;23;20016;-64
2022/07/03 04:45:03;;;;;;;2.72;2.53;;;15.30;99.90;;;;;;6209704;23;20074;-65
2022/07/03 04:47:29;;;;;;;8.23;2.88;;;15.30;99.90;;;;;;6239265;23;20064;-64
2022/07/03 04:49:55;;;;;;;10.77;3.40;;;15.30;99.90;;;;;;6210579;23;20043;-64
2022/07/03 04:52:21;;;;;;;5.05;2.50;;;15.30;99.90;;;;;;6239276;23;20103;-64
2022/07/03 04:54:46;;;;;;;8.50;2.78;;;15.40;99.90;;;;;;6211145;23;20020;-64
2022/07/03 04:57:12;;;;;;;6.65;2.92;;;15.40;99.90;;;;;;6238059;23;20020;-65
2022/07/03 04:59:38;;;;;;;6.97;2.70;;;15.40;99.90;;;;;;6212072;23;20056;-64
2022/07/03 05:02:04;;;;;;;4.53;2.40;;;15.40;99.90;;;;;;6185220;23;20016;-64
2022/07/03 05:04:29;;;;;;;3.60;2.72;;;15.40;99.90;;;;;;6238907;23;20017;-65
2022/07/03 05:06:55;;;;;;;4.18;2.58;;;15.50;99.90;;;;;;6237325;23;20023;-64
2022/07/03 05:09:21;;;;;;;4.45;2.67;;;15.50;99.90;;;;;;6239172;23;20012;-64
2022/07/03 05:11:47;;;;;;;5.72;2.90;;;15.70;99.90;;;;;;6237691;23;20040;-64
2022/07/03 05:14:13;;;;;;;5.07;2.45;;;16.00;99.90;;;;;;6211381;23;20384;-64
2022/07/03 05:16:38;;;;;;;3.78;2.35;;;16.10;99.90;;;;;;6238609;23;20024;-64
2022/07/03 05:19:04;;;;;;;6.88;2.10;;;16.30;99.90;;;;;;6237914;23;20435;-64
2022/07/03 05:21:30;;;;;;;9.75;2.25;;;16.50;99.90;;;;;;6186752;23;20047;-65
2022/07/03 05:23:56;;;;;;;7.28;2.17;;;16.70;99.90;;;;;;6237206;23;20091;-64
2022/07/03 05:26:22;;;;;;;7.70;2.60;;;16.90;99.90;;;;;;6212154;23;20426;-65
2022/07/03 05:28:48;;;;;;;3.97;2.55;;;17.10;99.90;;;;;;6237828;23;20012;-65
2022/07/03 05:31:14;;;;;;;6.68;2.60;;;17.30;99.90;;;;;;6237676;23;20035;-64
2022/07/03 05:33:40;;;;;;;6.70;2.60;;;17.50;99.90;;;;;;6237768;23;20024;-65
2022/07/03 05:36:06;;;;;;;7.65;2.38;;;17.60;99.90;;;;;;6210711;23;20019;-65
2022/07/03 05:41:17;;;;;;;4.97;2.55;;;17.70;99.90;;;;;;6237144;23;20099;-65
2022/07/03 05:43:43;;;;;;;6.18;2.95;;;17.80;99.90;;;;;;6238596;23;20027;-65
2022/07/03 05:46:09;;;;;;;8.00;2.70;;;17.90;99.90;;;;;;6236270;23;20016;-64
2022/07/03 05:48:34;;;;;;;4.57;3.10;;;18.10;99.90;;;;;;6238791;23;20020;-65
2022/07/03 05:51:00;;;;;;;5.35;2.90;;;18.20;99.90;;;;;;6236944;23;20012;-65
2022/07/03 05:53:26;;;;;;;4.47;2.58;;;18.30;99.90;;;;;;6211340;23;20020;-64
2022/07/03 05:55:52;;;;;;;4.45;2.80;;;18.30;99.90;;;;;;6238250;23;20380;-64
2022/07/03 05:58:18;;;;;;;5.00;2.50;;;18.40;99.90;;;;;;6236769;23;20020;-64
2022/07/03 06:00:44;;;;;;;2.97;2.50;;;18.50;99.90;;;;;;6239042;23;20020;-64
2022/07/03 06:03:09;;;;;;;5.45;2.45;;;18.60;99.90;;;;;;6236704;23;20055;-64
2022/07/03 06:05:35;;;;;;;8.15;2.67;;;18.70;99.90;;;;;;6212121;23;20020;-64
2022/07/03 06:08:01;;;;;;;4.85;2.75;;;18.90;99.90;;;;;;6237172;23;20335;-64
2022/07/03 06:10:29;;;;;;;7.78;2.40;;;18.90;99.90;;;;;;6237984;23;20447;-65
2022/07/03 06:12:55;;;;;;;3.65;2.28;;;19.00;99.90;;;;;;6238316;23;20015;-65
2022/07/03 06:15:21;;;;;;;3.17;1.98;;;19.00;99.90;;;;;;6237299;23;20087;-64
2022/07/03 06:17:47;;;;;;;7.88;2.25;;;19.10;99.90;;;;;;6211547;23;20020;-65
2022/07/03 06:20:13;;;;;;;2.20;1.70;;;19.10;99.90;;;;;;6236782;23;20012;-65
2022/07/03 06:22:40;;;;;;;5.22;2.05;;;19.10;99.90;;;;;;6238015;23;20577;-65
2022/07/03 06:25:06;;;;;;;5.32;1.75;;;19.10;99.90;;;;;;6236279;23;20063;-64
2022/07/03 06:27:32;;;;;;;6.10;1.88;;;19.20;99.90;;;;;;6238422;23;20012;-65
2022/07/03 06:29:58;;;;;;;7.75;1.88;;;19.30;99.90;;;;;;6237876;23;20597;-65
2022/07/03 06:32:24;;;;;;;5.72;2.20;;;19.40;99.90;;;;;;6236785;23;20016;-65
2022/07/03 06:34:50;;;;;;;6.00;1.50;;;19.50;99.90;;;;;;6238419;23;20027;-65
2022/07/03 06:37:16;;;;;;;8.45;1.70;;;19.70;99.90;;;;;;6236957;23;20067;-65
2022/07/03 06:39:42;;;;;;;5.07;1.40;;;19.80;99.90;;;;;;6238329;23;20382;-65
2022/07/03 06:42:07;;;;;;;5.47;1.40;;;19.90;99.90;;;;;;6236129;23;20020;-65
2022/07/03 06:44:33;;;;;;;2.42;1.20;;;20.00;99.90;;;;;;6237993;23;20451;-65
2022/07/03 06:47:03;;;;;;;10.23;1.50;;;20.00;99.90;;;;;;6210229;23;20427;-65
2022/07/03 06:49:31;;;;;;;2.92;1.20;;;19.90;99.90;;;;;;6238554;23;20083;-65
2022/07/03 06:51:57;;;;;;;6.32;1.30;;;19.80;99.90;;;;;;6238008;23;20099;-65
2022/07/03 06:54:23;;;;;;;7.50;1.38;;;19.70;99.50;;;;;;6236962;23;20054;-64
2022/07/03 06:56:49;;;;;;;3.13;1.33;;;19.80;99.90;;;;;;6236798;23;20035;-64
2022/07/03 06:59:14;;;;;;;1.45;1.35;;;19.90;99.90;;;;;;6236385;23;20013;-65
2022/07/03 07:01:40;;;;;;;2.35;0.98;;;19.80;99.90;;;;;;6238017;23;20017;-65
2022/07/03 07:04:06;;;;;;;12.00;1.30;;;19.70;99.90;;;;;;6236674;23;20534;-64
2022/07/03 07:06:32;;;;;;;1.30;1.20;;;19.70;99.50;;;;;;6208981;23;20396;-65
2022/07/03 07:08:58;;;;;;;3.33;1.50;;;19.70;99.90;;;;;;6207915;23;20086;-65
2022/07/03 07:11:23;;;;;;;3.75;1.50;;;19.90;99.90;;;;;;6234191;23;20219;-65
2022/07/03 07:13:49;;;;;;;2.30;1.35;;;20.00;99.90;;;;;;6235716;23;20032;-65
2022/07/03 07:16:15;;;;;;;3.63;1.20;;;20.00;97.70;;;;;;6236031;23;20301;-65
2022/07/03 07:18:41;;;;;;;2.00;1.10;;;20.00;99.90;;;;;;6238118;23;20017;-65
2022/07/03 07:21:07;;;;;;;4.78;1.45;;;19.90;96.30;;;;;;6237255;23;20320;-65
2022/07/03 07:23:33;;;;;;;6.20;1.50;;;19.90;99.90;;;;;;6240358;23;20083;-65
2022/07/03 07:25:59;;;;;;;1.92;1.10;;;20.10;99.70;;;;;;6238786;23;20016;-65
2022/07/03 07:28:24;;;;;;;4.85;1.33;;;20.30;99.50;;;;;;6239600;23;20066;-65
2022/07/03 07:30:53;;;;;;;5.57;1.83;;;20.50;99.90;;;;;;6240363;23;20040;-65
2022/07/03 07:33:19;;;;;;;3.35;1.77;;;20.60;99.50;;;;;;6238338;23;20083;-65
2022/07/03 07:35:45;;;;;;;2.60;1.13;;;20.80;99.90;;;;;;6240000;23;20474;-66
2022/07/03 07:38:11;;;;;;;5.47;1.30;;;21.00;99.90;;;;;;6237728;23;20062;-65
2022/07/03 07:40:37;;;;;;;2.78;1.40;;;21.30;94.80;;;;;;6240232;23;20012;-65
2022/07/03 07:43:03;;;;;;;2.65;1.35;;;21.50;89.80;;;;;;6211368;23;20024;-65
2022/07/03 07:45:29;;;;;;;2.47;1.25;;;21.40;93.50;;;;;;6238908;23;20099;-65
2022/07/03 07:47:54;;;;;;;3.30;1.15;;;21.30;95.90;;;;;;6239725;23;20044;-65
2022/07/03 07:50:20;;;;;;;6.43;1.40;;;21.20;95.90;;;;;;6239170;23;20086;-65
2022/07/03 07:52:46;;;;;;;5.80;1.55;;;21.20;96.10;;;;;;6240001;23;20031;-65
2022/07/03 07:55:12;;;;;;;4.43;1.08;;;21.20;95.00;;;;;;6237828;23;20020;-65
2022/07/03 07:57:39;;;;;;;1.85;0.90;;;21.00;92.10;;;;;;6240103;23;20023;-65
2022/07/03 08:00:11;;;;;;;4.35;1.00;;;20.80;95.80;;;;;;6238603;23;20339;-65
2022/07/03 08:05:36;;;;;;;3.80;1.20;;;20.80;96.70;;;;;;6238857;23;20020;-65
2022/07/03 08:08:16;;;;;;;2.97;0.98;;;21.40;99.90;;;;;;6214982;23;20034;-65
2022/07/03 08:10:47;;;;;;;7.35;1.10;;;21.90;83.70;;;;;;6239573;23;20020;-66
2022/07/03 08:13:16;;;;;;;1.05;0.57;;;22.30;73.60;;;;;;6237717;23;20023;-66
2022/07/03 08:15:43;;;;;;;10.20;1.33;;;22.20;82.30;;;;;;6239425;23;20463;-65
2022/07/03 08:18:09;;;;;;;2.40;1.13;;;21.70;79.00;;;;;;6238065;23;20390;-65
2022/07/03 08:20:36;;;;;;;5.80;0.98;;;21.40;84.20;;;;;;6238868;23;20027;-66
2022/07/03 08:23:03;;;;;;;10.85;1.00;;;21.10;85.10;;;;;;6211062;23;20027;-65
2022/07/03 08:25:29;;;;;;;3.80;1.02;;;20.90;81.20;;;;;;6210243;23;20780;-65
2022/07/03 08:27:56;;;;;;;1.48;0.70;;;20.90;92.70;;;;;;6212876;23;20151;-65
2022/07/03 08:30:22;;;;;;;1.67;0.90;;;20.90;94.60;;;;;;6237613;23;20059;-66
2022/07/03 08:32:49;;;;;;;2.53;0.68;;;21.10;93.50;;;;;;6211861;23;20218;-65
2022/07/03 08:35:15;;;;;;;1.67;0.90;;;21.10;90.80;;;;;;6237897;23;20020;-65
2022/07/03 08:37:42;;;;;;;3.72;0.95;;;21.20;90.30;;;;;;6239536;23;20082;-65
2022/07/03 08:40:10;;;;;;;2.85;1.10;;;21.40;90.20;;;;;;6239560;23;20012;-65
2022/07/03 08:42:39;;;;;;;1.77;0.98;;;21.70;93.50;;;;;;6237582;23;20470;-66
2022/07/03 08:45:08;;;;;;;3.78;1.00;;;21.90;90.00;;;;;;6211716;23;20339;-66
2022/07/03 08:47:37;;;;;;;1.92;1.08;;;22.20;77.10;;;;;;6185508;23;20022;-65
2022/07/03 08:50:03;;;;;;;2.22;1.20;;;22.50;74.30;;;;;;6239697;23;20012;-65
2022/07/03 08:52:31;;;;;;;1.75;0.90;;;22.90;75.40;;;;;;6237986;23;20016;-65
2022/07/03 08:54:56;;;;;;;3.60;0.93;;;23.10;65.10;;;;;;6238604;23;20339;-65
2022/07/03 08:57:24;;;;;;;2.45;1.10;;;22.80;66.50;;;;;;6238905;23;20016;-65
2022/07/03 08:59:53;;;;;;;4.57;1.38;;;22.60;66.60;;;;;;6238094;23;20099;-65
2022/07/03 09:02:20;;;;;;;3.28;0.95;;;22.40;82.70;;;;;;6239245;23;20081;-65
2022/07/03 09:04:47;;;;;;;3.17;1.08;;;22.20;82.50;;;;;;6238076;23;20016;-65
2022/07/03 09:07:13;;;;;;;7.13;1.17;;;22.20;78.60;;;;;;6238950;23;20016;-65
2022/07/03 09:09:40;;;;;;;5.43;1.10;;;22.10;76.80;;;;;;6238615;23;20071;-65
2022/07/03 09:12:06;;;;;;;2.67;1.05;;;22.10;70.90;;;;;;6240788;23;20087;-65
2022/07/03 09:14:32;;;;;;;4.25;1.63;;;22.10;73.80;;;;;;6238426;23;20020;-65
2022/07/03 09:16:58;;;;;;;1.48;1.02;;;22.30;81.20;;;;;;6211032;23;20020;-65
2022/07/03 09:19:47;;;;;;;3.70;1.00;;;22.30;75.60;;;;;;6211809;23;20023;-65
2022/07/03 09:22:22;;;;;;;3.70;0.98;;;22.20;78.00;;;;;;6210940;23;20019;-65
2022/07/03 09:24:49;;;;;;;3.90;1.20;;;22.20;82.80;;;;;;6211831;23;20074;-65
2022/07/03 09:27:23;;;;;;;3.15;1.25;;;22.10;71.10;;;;;;6238285;23;20076;-65
2022/07/03 09:30:01;;;;;;;2.55;0.93;;;22.10;76.50;;;;;;6238160;23;20406;-65
2022/07/03 09:32:47;;;;;;;2.40;1.20;;;22.20;90.90;;;;;;6238095;23;20020;-65
2022/07/03 09:35:15;;;;;;;2.10;1.30;;;22.20;73.80;;;;;;6237351;23;20026;-65
2022/07/03 09:37:52;;;;;;;4.57;1.25;;;22.20;76.60;;;;;;6238844;23;20030;-65
2022/07/03 09:40:19;;;;;;;1.88;1.00;;;21.80;83.40;;;;;;6236111;23;20031;-65
2022/07/03 09:43:05;;;;;;;1.48;0.82;;;21.40;86.90;;;;;;6234846;23;20047;-65
2022/07/03 09:45:53;;;;;;;4.80;1.45;;;21.30;94.40;;;;;;6235531;23;20016;-65
2022/07/03 09:48:40;;;;;;;1.38;0.73;;;21.30;90.50;;;;;;6206398;23;20034;-65
2022/07/03 09:51:28;;;;;;;1.80;0.70;;;21.40;88.80;;;;;;6211123;23;20028;-65
2022/07/03 09:54:02;;;;;;;2.10;0.90;;;21.50;87.70;;;;;;6211997;23;20157;-65
2022/07/03 09:56:29;;;;;;;2.80;0.60;;;21.60;76.90;;;;;;6236506;23;20023;-65
2022/07/03 09:59:12;;;;;;;2.60;0.77;;;21.90;66.50;;;;;;6238694;23;20028;-65
2022/07/03 10:01:40;;;;;;;1.42;0.63;;;22.10;62.30;;;;;;6237246;23;20026;-65
2022/07/03 10:04:11;;;;;;;7.72;0.90;;;22.50;69.00;;;;;;6236840;23;20107;-65
2022/07/03 10:06:50;;;;;;;1.58;0.75;;;23.00;77.60;;;;;;6238054;23;20016;-65
2022/07/03 10:09:18;;;;;;;1.17;0.70;;;23.40;50.30;;;;;;6209994;23;20023;-65
2022/07/03 10:11:44;;;;;;;1.42;0.65;;;23.70;37.40;;;;;;6238557;23;20079;-65
2022/07/03 10:14:15;;;;;;;6.15;0.68;;;23.80;41.30;;;;;;6237008;23;20035;-65
2022/07/03 10:16:41;;;;;;;1.65;0.68;;;23.50;23.30;;;;;;6210813;23;20389;-65
2022/07/03 10:19:20;;;;;;;2.25;0.50;;;23.50;49.20;;;;;;6236619;23;20016;-65
2022/07/03 10:21:53;;;;;;;1.70;0.80;;;23.40;44.80;;;;;;6208761;23;20110;-65
2022/07/03 10:24:23;;;;;;;2.13;0.70;;;23.30;41.60;;;;;;6211480;23;20020;-65
2022/07/03 10:26:49;;;;;;;1.92;0.80;;;23.10;38.10;;;;;;6236758;23;20016;-65
2022/07/03 10:29:15;;;;;;;3.40;0.63;;;22.80;51.10;;;;;;6238396;23;20016;-65
2022/07/03 10:31:45;;;;;;;1.20;0.80;;;22.80;50.50;;;;;;6236474;23;20103;-65
2022/07/03 10:34:12;;;;;;;1.23;0.80;;;22.90;59.10;;;;;;6238086;23;20012;-65
2022/07/03 10:36:39;;;;;;;4.93;1.13;;;23.00;55.90;;;;;;6237815;23;20433;-65
2022/07/03 10:39:06;;;;;;;1.83;0.70;;;23.30;44.10;;;;;;6236974;23;20088;-65
2022/07/03 10:47:40;;;;;;;2.70;0.93;;;22.40;65.30;;;;;;6238136;23;20020;-65
2022/07/03 10:50:20;;;;;;;3.35;0.80;;;22.10;64.40;;;;;;6238438;23;20020;-65
2022/07/03 10:52:46;;;;;;;1.23;0.52;;;21.90;67.90;;;;;;6236497;23;20020;-65
2022/07/03 10:55:14;;;;;;;0.52;0.40;;;21.90;81.70;;;;;;6262109;22;20016;-65
2022/07/03 10:58:00;;;;;;;1.67;0.50;;;22.00;56.00;;;;;;6239102;23;20024;-65
2022/07/03 11:00:26;;;;;;;0.85;0.50;;;21.90;60.20;;;;;;6237072;23;20024;-65
2022/07/03 11:02:52;;;;;;;1.77;0.60;;;21.90;45.10;;;;;;6239655;23;20020;-64
2022/07/03 11:05:18;;;;;;;0.43;0.32;;;22.00;42.70;;;;;;6238422;23;20016;-65
2022/07/03 11:07:53;;;;;;;1.50;0.40;;;22.30;29.30;;;;;;6239660;23;20391;-66
2022/07/03 11:10:18;;;;;;;1.42;0.47;;;22.70;19.80;;;;;;6238847;23;20024;-65
2022/07/03 11:12:56;;;;;;;0.45;0.40;;;23.00;27.80;;;;;;6239061;23;20077;-65
2022/07/03 11:15:27;;;;;;;1.30;0.40;;;23.30;21.40;;;;;;6237854;23;20077;-65
2022/07/03 11:18:08;;;;;;;1.17;0.40;;;23.40;25.10;;;;;;6236941;23;20024;-65
2022/07/03 11:20:48;;;;;;;12.85;0.98;;;23.60;14.00;;;;;;6239117;22;20024;-66
2022/07/03 11:23:20;;;;;;;1.75;0.45;;;23.40;9.50;;;;;;6238977;23;20020;-65
2022/07/03 11:25:50;;;;;;;0.32;0.32;;;23.10;15.00;;;;;;6238844;22;20112;-65
2022/07/03 11:28:30;;;;;;;0.50;0.50;;;23.30;15.30;;;;;;6240072;23;20109;-65
2022/07/03 11:33:43;;;;;;;1.00;0.50;;;23.50;7.80;;;;;;6239192;23;20024;-65
2022/07/03 11:36:14;;;;;;;5.82;0.50;;;23.50;10.70;;;;;;6236673;23;20381;-64
2022/07/03 11:38:40;;;;;;;1.23;0.50;;;23.40;17.10;;;;;;6239720;23;20016;-65
2022/07/03 11:41:09;;;;;;;1.38;0.35;;;23.30;12.60;;;;;;6238691;23;20020;-65
2022/07/03 11:43:35;;;;;;;0.57;0.43;;;23.40;29.60;;;;;;6238110;23;20042;-65
2022/07/03 11:46:01;;;;;;;1.67;0.50;;;23.30;10.00;;;;;;6236570;23;20454;-65
2022/07/03 11:48:28;;;;;;;1.45;0.52;;;23.30;16.00;;;;;;6234823;23;20020;-65
2022/07/03 11:51:01;;;;;;;2.10;0.70;;;23.30;14.30;;;;;;6239649;23;20016;-65
2022/07/03 11:53:35;;;;;;;1.17;0.50;;;23.60;14.00;;;;;;6236335;23;20690;-65
2022/07/03 11:56:04;;;;;;;0.85;0.38;;;23.90;12.50;;;;;;6239006;23;20024;-66
2022/07/03 11:58:43;;;;;;;0.60;0.20;;;24.20;11.60;;;;;;6211627;23;20043;-65
2022/07/03 12:01:27;;;;;;;1.40;0.55;;;24.20;16.40;;;;;;6237956;23;20048;-65
2022/07/03 12:04:01;;;;;;;0.63;0.50;;;24.00;10.30;;;;;;6211526;23;20023;-65
2022/07/03 12:06:35;;;;;;;0.90;0.40;;;23.90;10.20;;;;;;6237627;23;20341;-65
2022/07/03 12:09:02;;;;;;;0.55;0.52;;;23.60;22.70;;;;;;6239334;23;20095;-65
2022/07/03 12:11:28;;;;;;;0.70;0.50;;;23.40;22.80;;;;;;6212254;23;20024;-65
2022/07/03 12:13:54;;;;;;;2.10;0.73;;;23.30;16.00;;;;;;6238116;23;20005;-65
2022/07/03 12:16:31;;;;;;;3.65;1.00;;;23.10;27.50;;;;;;6239604;23;20587;-65
2022/07/03 12:19:04;;;;;;;3.95;1.02;;;22.70;75.40;;;;;;6238561;23;20094;-64
2022/07/03 12:21:37;;;;;;;10.27;2.17;;;22.60;96.40;;;;;;6239936;23;20095;-64
2022/07/03 12:24:10;;;;;;;5.50;1.60;;;22.60;97.80;;;;;;6238403;23;20024;-64
2022/07/03 12:26:36;;;;;;;5.15;1.60;;;22.70;99.00;;;;;;6211514;23;20449;-64
2022/07/03 12:29:05;;;;;;;8.43;1.55;;;22.50;96.80;;;;;;6239958;23;20016;-64
2022/07/03 12:31:31;;;;;;;;;;;22.30;96.90;;;;;;6238503;23;20344;-64
2022/07/03 12:33:58;;;;;;;7.40;1.40;;;21.90;99.20;;;;;;6239450;23;19922;-64
2022/07/03 12:36:24;;;;;;;10.10;2.35;;;21.60;99.90;;;;;;6237527;23;20073;-64
2022/07/03 12:38:55;;;;;;;7.03;1.67;;;21.60;99.90;;;;;;6238485;23;20020;-64
2022/07/03 12:41:22;;;;;;;9.23;1.90;;;21.50;99.90;;;;;;6238421;23;20098;-64
2022/07/03 12:43:50;;;;;;;8.38;2.20;;;21.40;99.90;;;;;;6235775;23;20031;-64
2022/07/03 12:46:20;;;;;;;6.77;1.40;;;21.30;99.90;;;;;;6211615;23;20021;-64
2022/07/03 12:48:49;;;;;;;10.18;1.85;;;21.20;99.90;;;;;;6237308;23;20028;-64
2022/07/03 12:51:16;;;;;;;7.13;1.73;;;21.20;99.90;;;;;;6211917;23;20100;-64
2022/07/03 12:53:42;;;;;;;7.32;1.67;;;21.40;99.90;;;;;;6235820;23;20190;-64
2022/07/03 12:56:10;;;;;;;10.45;2.13;;;21.60;99.90;;;;;;6239115;23;20020;-64
2022/07/03 13:01:33;;;;;;;8.13;1.92;;;21.50;99.90;;;;;;6237838;23;20020;-63
2022/07/03 13:04:00;;;;;;;9.93;1.60;;;21.10;99.90;;;;;;6211645;23;20348;-64
2022/07/03 13:06:26;;;;;;;8.07;2.05;;;20.90;99.90;;;;;;6237599;23;20425;-64
2022/07/03 13:08:58;;;;;;;5.30;1.85;;;20.80;99.90;;;;;;6211890;23;20059;-64
2022/07/03 13:11:31;;;;;;;10.77;1.95;;;20.60;99.90;;;;;;6209911;23;20020;-64
2022/07/03 13:14:05;;;;;;;5.75;1.65;;;20.50;99.90;;;;;;6237254;23;20037;-64
2022/07/03 13:16:46;;;;;;;7.25;1.77;;;20.50;99.90;;;;;;6237792;23;20027;-64